createdAt,value
2024-02-20T00:02:23.452Z,6.02
2024-02-20T00:06:25.536Z,6.06
2024-02-20T00:10:27.639Z,6.04
2024-02-20T00:14:29.804Z,6.05
2024-02-20T00:18:31.916Z,6.04
2024-02-20T00:22:34.646Z,6.08
2024-02-20T00:26:36.822Z,6.09
2024-02-20T00:30:38.975Z,6.04
2024-02-20T00:34:41.135Z,6.01
2024-02-20T00:38:43.315Z,6.00
2024-02-20T00:42:46.614Z,5.99
2024-02-20T00:46:48.759Z,5.98
2024-02-20T00:50:50.832Z,5.98
2024-02-20T00:54:52.918Z,5.93
2024-02-20T00:58:55.368Z,5.92
2024-02-20T01:02:59.909Z,5.98
2024-02-20T01:07:02.107Z,6.01
2024-02-20T01:11:05.102Z,5.98
2024-02-20T01:15:07.985Z,5.95
2024-02-20T01:19:10.199Z,6.04
2024-02-20T01:23:13.725Z,6.09
2024-02-20T01:27:17.532Z,6.11
2024-02-20T01:31:19.610Z,6.10
2024-02-20T01:35:21.723Z,6.09
2024-02-20T01:39:23.862Z,6.09
2024-02-20T01:43:25.942Z,6.08
2024-02-20T01:47:28.140Z,6.10
2024-02-20T01:51:33.638Z,6.09
2024-02-20T01:55:37.531Z,6.06
2024-02-20T01:59:39.693Z,6.08
2024-02-20T02:03:42.203Z,6.05
2024-02-20T02:07:44.324Z,6.05
2024-02-20T02:11:46.441Z,6.03
2024-02-20T02:15:48.638Z,5.98
2024-02-20T02:19:50.901Z,5.93
2024-02-20T02:23:53.059Z,5.94
2024-02-20T02:27:55.281Z,5.84
2024-02-20T02:31:57.418Z,5.79
2024-02-20T02:36:02.175Z,5.81
2024-02-20T02:40:07.841Z,5.81
2024-02-20T02:44:10.705Z,5.81
2024-02-20T02:48:12.776Z,5.82
2024-02-20T02:52:15.427Z,5.85
2024-02-20T02:56:17.976Z,5.93
2024-02-20T03:00:20.220Z,5.95
2024-02-20T03:04:22.323Z,5.97
2024-02-20T03:08:24.439Z,5.97
2024-02-20T03:12:26.565Z,5.96
2024-02-20T03:16:28.654Z,5.93
2024-02-20T03:20:31.042Z,5.86
2024-02-20T03:24:33.062Z,5.70
2024-02-20T03:28:35.506Z,5.71
2024-02-20T03:32:37.672Z,5.53
2024-02-20T03:36:39.745Z,5.37
2024-02-20T03:40:43.358Z,5.24
2024-02-20T03:44:45.465Z,5.19
2024-02-20T03:48:47.541Z,5.18
2024-02-20T03:52:49.618Z,5.21
2024-02-20T03:56:52.020Z,5.15
2024-02-20T04:00:54.198Z,5.11
2024-02-20T04:04:56.373Z,5.04
2024-02-20T04:09:04.015Z,4.95
2024-02-20T04:13:06.088Z,4.85
2024-02-20T04:17:08.195Z,4.80
2024-02-20T04:21:10.224Z,4.83
2024-02-20T04:25:12.454Z,4.86
2024-02-20T04:29:14.524Z,4.91
2024-02-20T04:33:16.692Z,4.90
2024-02-20T04:37:19.950Z,4.89
2024-02-20T04:41:28.196Z,4.88
2024-02-20T04:45:30.245Z,4.91
2024-02-20T04:49:32.599Z,4.95
2024-02-20T04:53:34.758Z,4.96
2024-02-20T04:57:36.825Z,4.96
2024-02-20T05:01:38.993Z,4.94
2024-02-20T05:05:41.144Z,4.95
2024-02-20T05:09:43.201Z,5.00
2024-02-20T05:13:45.332Z,5.00
2024-02-20T05:17:47.507Z,5.02
2024-02-20T05:21:49.604Z,5.04
2024-02-20T05:25:51.681Z,5.05
2024-02-20T05:29:53.769Z,5.02
2024-02-20T05:33:57.615Z,5.01
2024-02-20T05:37:59.917Z,4.94
2024-02-20T05:42:01.945Z,4.84
2024-02-20T05:46:04.139Z,4.73
2024-02-20T05:50:06.644Z,4.65
2024-02-20T05:54:09.486Z,4.61
2024-02-20T05:58:11.595Z,4.58
2024-02-20T06:02:13.808Z,4.60
2024-02-20T06:06:16.004Z,4.60
2024-02-20T06:10:18.278Z,4.60
2024-02-20T06:14:20.367Z,4.59
2024-02-20T06:18:22.513Z,4.57
2024-02-20T06:22:24.750Z,4.60
2024-02-20T06:26:26.888Z,4.66
2024-02-20T06:30:29.192Z,4.63
2024-02-20T06:34:31.376Z,4.61
2024-02-20T06:38:33.781Z,4.60
2024-02-20T06:42:36.254Z,4.55
2024-02-20T06:46:41.711Z,4.54
2024-02-20T06:50:43.976Z,4.54
2024-02-20T06:54:46.055Z,4.64
2024-02-20T06:58:48.136Z,4.99
2024-02-20T07:02:50.364Z,5.03
2024-02-20T07:06:53.335Z,5.01
2024-02-20T07:10:55.768Z,5.06
2024-02-20T07:14:57.937Z,5.22
2024-02-20T07:19:00.133Z,5.43
2024-02-20T07:23:03.131Z,5.65
2024-02-20T07:27:05.664Z,5.88
2024-02-20T07:31:08.036Z,6.12
2024-02-20T07:35:11.422Z,6.36
2024-02-20T07:39:13.665Z,6.64
2024-02-20T07:43:15.733Z,6.78
2024-02-20T07:47:17.837Z,6.90
2024-02-20T07:51:20.715Z,7.01
2024-02-20T07:55:26.070Z,7.07
2024-02-20T07:59:28.151Z,7.04
2024-02-20T08:03:30.362Z,7.05
2024-02-20T08:07:32.874Z,7.09
2024-02-20T08:11:35.507Z,7.21
2024-02-20T08:15:39.053Z,7.35
2024-02-20T08:19:42.829Z,7.42
2024-02-20T08:23:45.010Z,7.54
2024-02-20T08:27:47.112Z,7.72
2024-02-20T08:31:49.246Z,7.86
2024-02-20T08:35:51.388Z,7.97
2024-02-20T08:39:53.520Z,7.93
2024-02-20T08:43:56.560Z,7.90
2024-02-20T08:47:59.365Z,7.94
2024-02-20T08:52:01.515Z,7.90
2024-02-20T08:56:03.769Z,8.04
2024-02-20T09:00:09.231Z,8.21
2024-02-20T09:04:14.252Z,8.36
2024-02-20T09:08:16.870Z,8.34
2024-02-20T09:12:20.319Z,8.20
2024-02-20T09:16:22.406Z,8.06
2024-02-20T09:20:24.857Z,8.13
2024-02-20T09:24:27.111Z,8.35
2024-02-20T09:28:30.302Z,8.65
2024-02-20T09:32:33.200Z,8.83
2024-02-20T09:36:35.300Z,8.90
2024-02-20T09:40:37.607Z,8.88
2024-02-20T09:44:39.917Z,8.76
2024-02-20T09:48:42.763Z,8.49
2024-02-20T09:52:51.032Z,8.41
2024-02-20T09:56:55.313Z,8.47
2024-02-20T10:01:02.899Z,8.58
2024-02-20T10:05:07.568Z,8.71
2024-02-20T10:09:10.274Z,8.83
2024-02-20T10:13:12.423Z,8.89
2024-02-20T10:17:18.685Z,8.87
2024-02-20T10:21:20.770Z,8.95
2024-02-20T10:25:22.821Z,9.09
2024-02-20T10:29:28.280Z,9.32
2024-02-20T10:33:33.587Z,9.76
2024-02-20T10:37:38.287Z,10.07
2024-02-20T10:41:40.893Z,10.16
2024-02-20T10:45:45.064Z,10.09
2024-02-20T10:49:47.909Z,9.94
2024-02-20T10:53:51.877Z,9.77
2024-02-20T10:57:54.568Z,9.60
2024-02-20T11:01:56.746Z,9.57
2024-02-20T11:05:58.977Z,9.57
2024-02-20T11:10:14.229Z,9.79
2024-02-20T11:14:30.643Z,10.20
2024-02-20T11:18:32.934Z,10.37
2024-02-20T11:22:35.566Z,10.23
2024-02-20T11:26:39.813Z,10.04
2024-02-20T11:30:42.948Z,10.08
2024-02-20T11:34:45.176Z,10.22
2024-02-20T11:38:59.623Z,10.32
2024-02-20T11:43:05.981Z,10.36
2024-02-20T11:47:08.500Z,10.44
2024-02-20T11:51:10.915Z,10.54
2024-02-20T11:55:13.226Z,10.72
2024-02-20T11:59:16.569Z,10.74
2024-02-20T12:03:30.992Z,10.60
2024-02-20T12:07:33.177Z,10.61
2024-02-20T12:11:50.419Z,10.65
2024-02-20T12:15:52.512Z,10.59
2024-02-20T12:20:06.213Z,10.60
2024-02-20T12:24:11.429Z,10.50
2024-02-20T12:28:13.750Z,10.45
2024-02-20T12:32:16.837Z,10.43
2024-02-20T12:36:20.055Z,10.47
2024-02-20T12:40:22.330Z,10.45
2024-02-20T12:44:24.442Z,10.38
2024-02-20T12:48:26.604Z,10.40
2024-02-20T12:52:30.597Z,10.63
2024-02-20T12:56:33.239Z,10.70
2024-02-20T13:00:36.404Z,10.76
2024-02-20T13:04:38.708Z,10.68
2024-02-20T13:08:40.912Z,10.72
2024-02-20T13:12:43.437Z,10.73
2024-02-20T13:16:46.719Z,10.72
2024-02-20T13:20:50.281Z,10.61
2024-02-20T13:24:52.596Z,10.53
2024-02-20T13:28:54.710Z,10.53
2024-02-20T13:32:56.828Z,10.56
2024-02-20T13:37:02.969Z,10.65
2024-02-20T13:41:05.140Z,10.65
2024-02-20T13:45:08.631Z,10.49
2024-02-20T13:49:22.053Z,10.39
2024-02-20T13:53:24.418Z,10.34
2024-02-20T13:57:26.588Z,10.32
2024-02-20T14:01:28.915Z,10.32
2024-02-20T14:05:31.406Z,10.41
2024-02-20T14:09:36.137Z,10.37
2024-02-20T14:13:38.295Z,10.35
2024-02-20T14:17:40.355Z,10.32
2024-02-20T14:21:42.407Z,10.20
2024-02-20T14:25:44.537Z,10.13
2024-02-20T14:29:46.848Z,9.98
2024-02-20T14:33:49.437Z,9.95
2024-02-20T14:37:51.779Z,9.97
2024-02-20T14:41:53.925Z,9.98
2024-02-20T14:45:56.279Z,9.95
2024-02-20T14:49:58.392Z,9.86
2024-02-20T14:54:01.560Z,9.74
2024-02-20T14:58:05.044Z,9.72
2024-02-20T15:02:07.337Z,9.71
2024-02-20T15:06:13.292Z,9.75
2024-02-20T15:10:15.994Z,9.71
2024-02-20T15:14:18.128Z,9.66
2024-02-20T15:18:22.357Z,9.67
2024-02-20T15:22:24.620Z,9.57
2024-02-20T15:26:26.702Z,9.41
2024-02-20T15:30:29.710Z,9.28
2024-02-20T15:34:32.067Z,9.19
2024-02-20T15:38:34.281Z,9.18
2024-02-20T15:42:39.404Z,9.13
2024-02-20T15:46:43.261Z,9.11
2024-02-20T15:50:47.831Z,9.06
2024-02-20T15:54:50.460Z,9.03
2024-02-20T15:58:52.686Z,8.92
2024-02-20T16:02:54.789Z,8.85
2024-02-20T16:06:56.838Z,8.69
2024-02-20T16:11:02.954Z,8.49
2024-02-20T16:15:05.961Z,8.41
2024-02-20T16:19:08.265Z,8.34
2024-02-20T16:23:12.007Z,8.21
2024-02-20T16:27:14.065Z,8.10
2024-02-20T16:31:17.374Z,8.00
2024-02-20T16:35:19.533Z,7.89
2024-02-20T16:39:21.600Z,7.82
2024-02-20T16:43:23.670Z,7.82
2024-02-20T16:47:25.739Z,7.82
2024-02-20T16:51:27.772Z,7.85
2024-02-20T16:55:30.767Z,7.88
2024-02-20T16:59:32.925Z,7.88
2024-02-20T17:03:35.628Z,7.85
2024-02-20T17:07:37.744Z,7.82
2024-02-20T17:11:45.041Z,7.72
2024-02-20T17:15:48.794Z,7.57
2024-02-20T17:19:51.513Z,7.50
2024-02-20T17:23:56.704Z,7.50
2024-02-20T17:27:58.804Z,7.47
2024-02-20T17:32:01.009Z,7.49
2024-02-20T17:36:03.107Z,7.47
2024-02-20T17:40:05.710Z,7.43
2024-02-20T17:44:07.806Z,7.46
2024-02-20T17:48:10.825Z,7.50
2024-02-20T17:52:14.885Z,7.47
2024-02-20T17:56:17.985Z,7.48
2024-02-20T18:00:20.278Z,7.51
2024-02-20T18:04:22.371Z,7.57
2024-02-20T18:08:24.520Z,7.56
2024-02-20T18:12:27.522Z,7.54
2024-02-20T18:16:29.599Z,7.53
2024-02-20T18:20:31.647Z,7.55
2024-02-20T18:24:33.654Z,7.56
2024-02-20T18:28:35.739Z,7.52
2024-02-20T18:32:37.965Z,7.48
2024-02-20T18:36:40.022Z,7.49
2024-02-20T18:40:42.349Z,7.46
2024-02-20T18:44:44.443Z,7.47
2024-02-20T18:48:46.625Z,7.45
2024-02-20T18:52:50.226Z,7.49
2024-02-20T18:56:52.752Z,7.52
2024-02-20T19:00:54.835Z,7.60
2024-02-20T19:04:57.050Z,7.66
2024-02-20T19:08:59.197Z,7.68
2024-02-20T19:13:02.007Z,7.69
2024-02-20T19:17:04.681Z,7.65
2024-02-20T19:21:06.789Z,7.66
2024-02-20T19:25:09.322Z,7.66
2024-02-20T19:29:12.160Z,7.66
2024-02-20T19:33:14.382Z,7.63
2024-02-20T19:37:17.662Z,7.63
2024-02-20T19:41:20.455Z,7.62
2024-02-20T19:45:22.492Z,7.58
2024-02-20T19:49:25.045Z,7.60
2024-02-20T19:53:27.234Z,7.62
2024-02-20T19:57:29.357Z,7.62
2024-02-20T20:01:31.474Z,7.61
2024-02-20T20:05:34.467Z,7.54
2024-02-20T20:09:38.205Z,7.55
2024-02-20T20:13:41.117Z,7.57
2024-02-20T20:17:43.826Z,7.61
2024-02-20T20:21:46.312Z,7.64
2024-02-20T20:25:48.443Z,7.64
2024-02-20T20:29:50.710Z,7.63
2024-02-20T20:33:54.068Z,7.66
2024-02-20T20:37:57.906Z,7.66
2024-02-20T20:42:00.238Z,7.65
2024-02-20T20:46:02.341Z,7.61
2024-02-20T20:50:04.845Z,7.56
2024-02-20T20:54:06.966Z,7.56
2024-02-20T20:58:09.068Z,7.53
2024-02-20T21:02:13.752Z,7.51
2024-02-20T21:06:16.752Z,7.48
2024-02-20T21:10:18.967Z,7.37
2024-02-20T21:14:21.431Z,7.36
2024-02-20T21:18:23.615Z,7.34
2024-02-20T21:22:25.898Z,7.27
2024-02-20T21:26:28.475Z,7.31
2024-02-20T21:30:30.506Z,7.35
2024-02-20T21:34:32.686Z,7.74
2024-02-20T21:38:35.914Z,7.73
2024-02-20T21:42:37.975Z,7.68
2024-02-20T21:46:40.099Z,7.60
2024-02-20T21:50:42.512Z,7.51
2024-02-20T21:54:44.631Z,7.45
2024-02-20T21:58:47.111Z,7.40
2024-02-20T22:02:50.330Z,7.39
2024-02-20T22:06:52.400Z,7.38
2024-02-20T22:10:57.879Z,7.37
2024-02-20T22:15:01.630Z,7.34
2024-02-20T22:19:09.705Z,7.27
2024-02-20T22:23:12.528Z,7.28
2024-02-20T22:27:14.620Z,7.27
2024-02-20T22:31:16.931Z,7.22
2024-02-20T22:35:26.944Z,7.21
2024-02-20T22:39:29.141Z,7.17
2024-02-20T22:43:32.902Z,7.15
2024-02-20T22:47:35.036Z,7.10
2024-02-20T22:51:37.128Z,7.04
2024-02-20T22:55:39.240Z,7.01
2024-02-20T22:59:41.315Z,6.99
2024-02-20T23:03:43.364Z,6.99
2024-02-20T23:07:45.447Z,6.98
2024-02-20T23:11:47.493Z,6.98
2024-02-20T23:15:49.548Z,7.10
2024-02-20T23:19:51.658Z,7.16
2024-02-20T23:23:53.759Z,7.18
2024-02-20T23:27:55.860Z,7.16
2024-02-20T23:31:58.073Z,7.09
2024-02-20T23:36:00.256Z,7.09
2024-02-20T23:40:02.295Z,7.08
2024-02-20T23:44:07.233Z,7.06
2024-02-20T23:48:09.457Z,7.06
2024-02-20T23:52:11.690Z,6.98
2024-02-20T23:56:13.784Z,6.97
